Terminal Aerodrome Forecast
Issued by NWS

Home | Current Version | Previous Version | Graphics & Text | Print | Product List | Glossary On
Versions: 1 2 3 4 5 6 7 8 9 10 11 12 13 14 15 16 17 18 19
317
FTUS43 KIWX 111727
TAFSBN
TAF
KSBN 111727Z 1118/1218 28008KT 5SM -SHSN SCT020 OVC045
      TEMPO 1118/1120 1SM -SHSN BKN020
     FM112300 25005KT P6SM SCT020 BKN250
     FM121500 28015G25KT 3SM -SN BLSN BKN020 OVC040=

USA.gov is the U.S. government's official web portal to all federal, state and local government web resources and services.